createdAt,value
2022-07-30T00:02:12.566Z,97793.38
2022-07-30T00:04:40.383Z,97790.88
2022-07-30T00:07:08.364Z,97791.06
2022-07-30T00:09:36.423Z,97789.02
2022-07-30T00:12:05.478Z,97788.47
2022-07-30T00:14:35.124Z,97791.69
2022-07-30T00:17:04.229Z,97792.86
2022-07-30T00:19:32.371Z,97785.21
2022-07-30T00:22:00.319Z,97781.89
2022-07-30T00:24:28.291Z,97779.95
2022-07-30T00:26:56.079Z,97780.92
2022-07-30T00:29:23.843Z,97776.30
2022-07-30T00:31:51.857Z,97775.27
2022-07-30T00:34:19.657Z,97771.98
2022-07-30T00:36:47.932Z,97766.36
2022-07-30T00:39:15.795Z,97760.62
2022-07-30T00:42:02.188Z,97754.64
2022-07-30T00:44:30.388Z,97753.76
2022-07-30T00:46:58.803Z,97756.45
2022-07-30T00:49:27.375Z,97755.45
2022-07-30T00:51:55.537Z,97749.92
2022-07-30T00:54:23.565Z,97744.95
2022-07-30T00:56:51.401Z,97744.83
2022-07-30T00:59:19.439Z,97739.65
2022-07-30T01:01:47.584Z,97739.10
2022-07-30T01:04:15.865Z,97738.80
2022-07-30T01:06:43.831Z,97738.67
2022-07-30T01:09:11.625Z,97737.27
2022-07-30T01:11:40.894Z,97731.14
2022-07-30T01:14:09.447Z,97730.44
2022-07-30T01:16:38.779Z,97728.61
2022-07-30T01:19:30.727Z,97724.99
2022-07-30T01:22:07.365Z,97724.89
2022-07-30T01:24:43.558Z,97723.69
2022-07-30T01:27:13.655Z,97720.59
2022-07-30T01:29:45.474Z,97722.45
2022-07-30T01:32:13.898Z,97715.23
2022-07-30T01:34:42.891Z,97720.64
2022-07-30T01:37:11.762Z,97725.02
2022-07-30T01:39:40.054Z,97722.14
2022-07-30T01:42:09.304Z,97720.58
2022-07-30T01:44:38.183Z,97719.21
2022-07-30T01:47:06.634Z,97720.98
2022-07-30T01:49:35.399Z,97719.55
2022-07-30T01:52:04.276Z,97718.64
2022-07-30T01:54:34.596Z,97717.83
2022-07-30T01:57:03.125Z,97718.88
2022-07-30T01:59:33.925Z,97718.04
2022-07-30T02:02:02.224Z,97718.40
2022-07-30T02:04:30.169Z,97726.14
2022-07-30T02:07:06.760Z,97729.25
2022-07-30T02:09:38.111Z,97728.21
2022-07-30T02:12:29.400Z,97728.87
2022-07-30T02:15:07.424Z,97727.14
2022-07-30T02:17:42.976Z,97723.00
2022-07-30T02:20:14.739Z,97712.52
2022-07-30T02:22:45.271Z,97710.62
2022-07-30T02:25:15.506Z,97703.59
2022-07-30T02:27:45.269Z,97707.14
2022-07-30T02:30:13.544Z,97710.64
2022-07-30T02:32:42.591Z,97710.86
2022-07-30T02:35:18.946Z,97710.37
2022-07-30T02:37:48.621Z,97709.83
2022-07-30T02:40:18.335Z,97705.36
2022-07-30T02:42:47.221Z,97704.67
2022-07-30T02:45:20.776Z,97701.81
2022-07-30T02:47:51.291Z,97702.81
2022-07-30T02:50:20.146Z,97699.28
2022-07-30T02:52:49.601Z,97700.68
2022-07-30T02:55:18.655Z,97697.02
2022-07-30T02:57:47.331Z,97699.16
2022-07-30T03:00:15.502Z,97694.40
2022-07-30T03:02:45.296Z,97700.48
2022-07-30T03:05:14.989Z,97700.60
2022-07-30T03:07:43.422Z,97698.44
2022-07-30T03:10:11.548Z,97693.80
2022-07-30T03:12:40.794Z,97689.54
2022-07-30T03:15:09.000Z,97693.26
2022-07-30T03:17:43.213Z,97697.36
2022-07-30T03:20:12.847Z,97696.23
2022-07-30T03:22:43.719Z,97694.09
2022-07-30T03:25:14.345Z,97695.14
2022-07-30T03:27:43.179Z,97696.89
2022-07-30T03:30:11.195Z,97697.98
2022-07-30T03:32:39.982Z,97700.75
2022-07-30T03:35:16.906Z,97701.45
2022-07-30T03:37:47.252Z,97707.18
2022-07-30T03:40:15.542Z,97711.48
2022-07-30T03:42:45.541Z,97715.58
2022-07-30T03:45:15.105Z,97716.36
2022-07-30T03:47:43.749Z,97714.34
2022-07-30T03:50:12.876Z,97707.70
2022-07-30T03:52:41.754Z,97701.25
2022-07-30T03:55:12.262Z,97697.29
2022-07-30T03:57:49.119Z,97701.39
2022-07-30T04:00:18.349Z,97702.84
2022-07-30T04:02:50.042Z,97703.58
2022-07-30T04:05:28.746Z,97706.02
2022-07-30T04:08:09.251Z,97702.16
2022-07-30T04:10:37.245Z,97703.04
2022-07-30T04:13:21.237Z,97708.11
2022-07-30T04:16:37.978Z,97708.20
2022-07-30T04:18:55.770Z,97711.20
2022-07-30T04:21:25.447Z,97706.17
2022-07-30T04:24:02.425Z,97700.17
2022-07-30T04:26:34.597Z,97695.92
2022-07-30T04:29:04.578Z,97699.00
2022-07-30T04:31:40.406Z,97699.21
2022-07-30T04:34:28.394Z,97700.27
2022-07-30T04:36:56.447Z,97705.11
2022-07-30T04:39:24.538Z,97703.55
2022-07-30T04:41:52.374Z,97701.60
2022-07-30T04:44:30.019Z,97701.50
2022-07-30T04:47:17.523Z,97699.75
2022-07-30T04:49:56.691Z,97705.23
2022-07-30T04:52:25.231Z,97708.52
2022-07-30T04:54:58.249Z,97709.91
2022-07-30T04:57:26.852Z,97709.06
2022-07-30T04:59:54.943Z,97705.96
2022-07-30T05:02:24.056Z,97706.75
2022-07-30T05:04:52.718Z,97709.96
2022-07-30T05:07:22.394Z,97706.91
2022-07-30T05:09:51.389Z,97706.59
2022-07-30T05:12:19.304Z,97705.00
2022-07-30T05:14:48.411Z,97703.20
2022-07-30T05:17:16.807Z,97698.92
2022-07-30T05:19:44.745Z,97699.00
2022-07-30T05:22:16.460Z,97696.96
2022-07-30T05:24:45.008Z,97700.46
2022-07-30T05:27:13.122Z,97700.00
2022-07-30T05:29:41.032Z,97702.92
2022-07-30T05:32:13.771Z,97705.04
2022-07-30T05:34:43.442Z,97708.38
2022-07-30T05:37:18.210Z,97715.73
2022-07-30T05:39:57.365Z,97717.43
2022-07-30T05:42:58.851Z,97722.64
2022-07-30T05:45:26.846Z,97729.84
2022-07-30T05:47:54.720Z,97735.25
2022-07-30T05:50:22.600Z,97734.38
2022-07-30T05:52:50.618Z,97732.33
2022-07-30T05:55:50.130Z,97733.29
2022-07-30T05:58:36.896Z,97730.95
2022-07-30T06:01:04.760Z,97733.16
2022-07-30T06:03:33.969Z,97736.45
2022-07-30T06:06:27.947Z,97739.83
2022-07-30T06:08:55.749Z,97744.39
2022-07-30T06:11:24.366Z,97750.80
2022-07-30T06:13:52.299Z,97754.89
2022-07-30T06:16:20.495Z,97756.48
2022-07-30T06:18:48.429Z,97747.95
2022-07-30T06:21:25.932Z,97750.61
2022-07-30T06:24:04.928Z,97756.02
2022-07-30T06:26:59.784Z,97759.69
2022-07-30T06:29:28.298Z,97762.48
2022-07-30T06:31:56.555Z,97771.14
2022-07-30T06:34:25.188Z,97769.04
2022-07-30T06:36:53.967Z,97766.60
2022-07-30T06:39:56.160Z,97764.44
2022-07-30T06:42:26.527Z,97765.91
2022-07-30T06:45:17.427Z,97763.47
2022-07-30T06:48:08.085Z,97757.16
2022-07-30T06:50:37.182Z,97758.39
2022-07-30T06:53:05.112Z,97760.69
2022-07-30T06:55:53.026Z,97764.88
2022-07-30T06:58:26.537Z,97757.60
2022-07-30T07:01:17.506Z,97754.15
2022-07-30T07:03:45.536Z,97751.34
2022-07-30T07:06:13.545Z,97748.27
2022-07-30T07:08:42.094Z,97747.31
2022-07-30T07:11:10.580Z,97745.34
2022-07-30T07:13:51.150Z,97743.83
2022-07-30T07:16:25.942Z,97744.48
2022-07-30T07:18:55.861Z,97745.82
2022-07-30T07:21:24.434Z,97739.39
2022-07-30T07:23:53.663Z,97735.90
2022-07-30T07:26:40.081Z,97731.36
2022-07-30T07:29:09.017Z,97722.14
2022-07-30T07:32:05.641Z,97718.81
2022-07-30T07:34:25.334Z,97722.66
2022-07-30T07:36:54.119Z,97726.79
2022-07-30T07:39:23.384Z,97718.41
2022-07-30T07:41:51.440Z,97712.09
2022-07-30T07:44:23.012Z,97712.89
2022-07-30T07:46:50.921Z,97718.98
2022-07-30T07:49:19.041Z,97727.44
2022-07-30T07:51:50.226Z,97725.14
2022-07-30T07:54:22.842Z,97712.98
2022-07-30T07:56:53.341Z,97705.89
2022-07-30T07:59:36.192Z,97702.73
2022-07-30T08:02:10.925Z,97699.35
2022-07-30T08:04:55.480Z,97690.43
2022-07-30T08:07:39.531Z,97685.54
2022-07-30T08:10:07.935Z,97684.66
2022-07-30T08:12:54.145Z,97688.81
2022-07-30T08:15:40.704Z,97690.05
2022-07-30T08:18:35.794Z,97687.86
2022-07-30T08:21:12.977Z,97681.65
2022-07-30T08:23:42.686Z,97684.86
2022-07-30T08:26:10.904Z,97682.00
2022-07-30T08:28:38.998Z,97678.50
2022-07-30T08:31:08.201Z,97673.48
2022-07-30T08:33:36.068Z,97677.04
2022-07-30T08:36:09.469Z,97672.60
2022-07-30T08:38:39.123Z,97664.02
2022-07-30T08:41:07.745Z,97661.17
2022-07-30T08:43:36.668Z,97658.54
2022-07-30T08:46:07.039Z,97662.75
2022-07-30T08:48:43.268Z,97665.67
2022-07-30T08:51:13.353Z,97664.02
2022-07-30T08:53:44.245Z,97668.09
2022-07-30T08:56:12.632Z,97664.48
2022-07-30T08:58:41.733Z,97663.35
2022-07-30T09:01:09.673Z,97661.64
2022-07-30T09:03:44.036Z,97661.47
2022-07-30T09:06:13.008Z,97658.88
2022-07-30T09:08:42.958Z,97656.72
2022-07-30T09:11:12.684Z,97657.98
2022-07-30T09:13:42.954Z,97654.28
2022-07-30T09:16:21.749Z,97655.38
2022-07-30T09:18:50.641Z,97651.25
2022-07-30T09:21:24.474Z,97649.11
2022-07-30T09:24:07.118Z,97645.79
2022-07-30T09:27:01.049Z,97646.31
2022-07-30T09:30:02.094Z,97642.61
2022-07-30T09:32:49.226Z,97637.71
2022-07-30T09:35:35.908Z,97631.09
2022-07-30T09:38:13.239Z,97630.40
2022-07-30T09:40:57.824Z,97625.37
2022-07-30T09:43:50.145Z,97617.30
2022-07-30T09:47:01.428Z,97615.47
2022-07-30T09:49:34.434Z,97607.95
2022-07-30T09:52:02.694Z,97606.50
2022-07-30T09:54:54.007Z,97601.17
2022-07-30T09:57:27.471Z,97592.42
2022-07-30T10:00:25.008Z,97587.94
2022-07-30T10:03:32.933Z,97586.80
2022-07-30T10:06:34.154Z,97581.20
2022-07-30T10:09:14.011Z,97585.07
2022-07-30T10:11:47.911Z,97584.98
2022-07-30T10:14:15.952Z,97577.16
2022-07-30T10:16:43.982Z,97577.23
2022-07-30T10:19:18.083Z,97570.77
2022-07-30T10:22:10.314Z,97571.20
2022-07-30T10:24:58.492Z,97574.17
2022-07-30T10:27:46.514Z,97565.45
2022-07-30T10:30:29.333Z,97562.39
2022-07-30T10:32:58.752Z,97560.45
2022-07-30T10:35:34.160Z,97561.30
2022-07-30T10:38:13.458Z,97556.41
2022-07-30T10:40:48.531Z,97551.56
2022-07-30T10:43:33.235Z,97552.52
2022-07-30T10:46:20.116Z,97542.05
2022-07-30T10:48:51.037Z,97542.35
2022-07-30T10:51:34.384Z,97535.30
2022-07-30T10:54:02.770Z,97530.56
2022-07-30T10:56:30.804Z,97521.83
2022-07-30T10:58:59.272Z,97521.18
2022-07-30T11:01:51.485Z,97503.30
2022-07-30T11:04:21.121Z,97499.13
2022-07-30T11:07:17.270Z,97489.23
2022-07-30T11:09:49.777Z,97486.68
2022-07-30T11:12:44.126Z,97480.23
2022-07-30T11:15:19.124Z,97470.59
2022-07-30T11:18:04.641Z,97470.88
2022-07-30T11:20:40.832Z,97459.95
2022-07-30T11:23:28.804Z,97455.80
2022-07-30T11:26:03.851Z,97449.70
2022-07-30T11:28:36.924Z,97428.72
2022-07-30T11:31:23.463Z,97422.23
2022-07-30T11:34:20.561Z,97430.41
2022-07-30T11:37:19.323Z,97423.02
2022-07-30T11:39:58.122Z,97412.25
2022-07-30T11:42:30.408Z,97407.38
2022-07-30T11:45:16.296Z,97396.99
2022-07-30T11:47:45.502Z,97396.14
2022-07-30T11:50:19.966Z,97394.91
2022-07-30T11:52:59.329Z,97390.45
2022-07-30T11:55:30.345Z,97381.73
2022-07-30T11:57:59.805Z,97375.92
2022-07-30T12:00:37.799Z,97374.68
2022-07-30T12:03:16.604Z,97373.98
2022-07-30T12:05:45.468Z,97364.42
2022-07-30T12:08:36.131Z,97356.89
2022-07-30T12:11:04.229Z,97349.34
2022-07-30T12:13:45.388Z,97339.61
2022-07-30T12:16:17.565Z,97331.98
2022-07-30T12:18:47.388Z,97330.57
2022-07-30T12:21:18.936Z,97341.67
2022-07-30T12:23:57.714Z,97355.35
2022-07-30T12:26:27.224Z,97364.66
2022-07-30T12:28:56.543Z,97367.20
2022-07-30T12:31:24.732Z,97360.00
2022-07-30T12:33:52.596Z,97351.58
2022-07-30T12:36:25.445Z,97358.07
2022-07-30T12:38:54.954Z,97365.81
2022-07-30T12:41:22.954Z,97356.33
2022-07-30T12:43:55.402Z,97347.66
2022-07-30T12:46:25.451Z,97346.65
2022-07-30T12:49:01.206Z,97348.73
2022-07-30T12:51:51.445Z,97348.92
2022-07-30T12:54:20.237Z,97346.39
2022-07-30T12:56:59.708Z,97349.70
2022-07-30T12:59:27.873Z,97352.14
2022-07-30T13:01:57.812Z,97346.20
2022-07-30T13:04:26.656Z,97346.27
2022-07-30T13:07:05.225Z,97352.83
2022-07-30T13:09:33.416Z,97349.73
2022-07-30T13:12:01.223Z,97340.04
2022-07-30T13:14:29.377Z,97335.94
2022-07-30T13:16:58.433Z,97336.02
2022-07-30T13:19:26.801Z,97336.33
2022-07-30T13:21:54.606Z,97339.95
2022-07-30T13:24:22.424Z,97341.47
2022-07-30T13:26:50.884Z,97337.56
2022-07-30T13:29:18.920Z,97331.16
2022-07-30T13:31:46.803Z,97324.73
2022-07-30T13:34:14.703Z,97319.30
2022-07-30T13:36:43.243Z,97310.19
2022-07-30T13:39:12.203Z,97306.44
2022-07-30T13:41:42.021Z,97301.19
2022-07-30T13:44:10.003Z,97295.13
2022-07-30T13:46:40.559Z,97291.32
2022-07-30T13:49:10.944Z,97287.94
2022-07-30T13:51:39.356Z,97283.41
2022-07-30T13:54:07.608Z,97284.57
2022-07-30T13:56:40.824Z,97287.75
2022-07-30T13:59:09.408Z,97284.42
2022-07-30T14:01:38.480Z,97291.20
2022-07-30T14:04:06.780Z,97300.14
2022-07-30T14:06:34.691Z,97305.66
2022-07-30T14:09:02.811Z,97302.99
2022-07-30T14:11:31.588Z,97297.78
2022-07-30T14:13:59.547Z,97290.08
2022-07-30T14:19:23.434Z,97285.01
2022-07-30T14:21:53.137Z,97276.45
2022-07-30T14:24:22.222Z,97273.11
2022-07-30T14:26:55.756Z,97269.92
2022-07-30T14:29:28.529Z,97270.08
2022-07-30T14:31:57.336Z,97270.85
2022-07-30T14:34:25.196Z,97274.73
2022-07-30T14:36:53.184Z,97276.42
2022-07-30T14:39:21.396Z,97282.17
2022-07-30T14:41:53.541Z,97285.42
2022-07-30T14:44:23.846Z,97296.99
2022-07-30T14:46:52.917Z,97310.89
2022-07-30T14:49:21.790Z,97323.59
2022-07-30T14:51:51.182Z,97330.77
2022-07-30T14:54:19.815Z,97328.48
2022-07-30T14:56:47.664Z,97335.88
2022-07-30T14:59:16.077Z,97349.14
2022-07-30T15:01:43.977Z,97353.58
2022-07-30T15:04:12.725Z,97365.52
2022-07-30T15:06:41.804Z,97372.80
2022-07-30T15:09:09.848Z,97384.92
2022-07-30T15:12:04.310Z,97384.67
2022-07-30T15:14:28.478Z,97399.95
2022-07-30T15:17:03.690Z,97412.06
2022-07-30T15:19:32.689Z,97426.28
2022-07-30T15:22:02.752Z,97419.73
2022-07-30T15:24:31.423Z,97405.63
2022-07-30T15:26:59.691Z,97403.23
2022-07-30T15:29:30.316Z,97406.80
2022-07-30T15:32:01.154Z,97422.69
2022-07-30T15:34:34.271Z,97424.73
2022-07-30T15:37:03.441Z,97427.40
2022-07-30T15:39:33.109Z,97431.25
2022-07-30T15:42:02.629Z,97429.56
2022-07-30T15:44:30.757Z,97438.23
2022-07-30T15:46:59.192Z,97438.52
2022-07-30T15:49:28.095Z,97437.33
2022-07-30T15:51:57.371Z,97434.57
2022-07-30T15:54:25.313Z,97436.04
2022-07-30T15:56:54.146Z,97441.48
2022-07-30T15:59:30.459Z,97439.55
2022-07-30T16:01:58.482Z,97436.05
2022-07-30T16:04:31.948Z,97442.31
2022-07-30T16:07:00.645Z,97438.57
2022-07-30T16:09:28.529Z,97433.04
2022-07-30T16:11:57.128Z,97439.51
2022-07-30T16:14:27.277Z,97439.61
2022-07-30T16:16:55.141Z,97444.39
2022-07-30T16:19:23.183Z,97443.47
2022-07-30T16:21:51.358Z,97448.73
2022-07-30T16:24:19.172Z,97448.32
2022-07-30T16:26:47.163Z,97451.80
2022-07-30T16:29:15.009Z,97458.83
2022-07-30T16:31:43.860Z,97463.42
2022-07-30T16:34:11.816Z,97473.56
2022-07-30T16:36:39.753Z,97477.33
2022-07-30T16:39:08.202Z,97486.86
2022-07-30T16:41:36.705Z,97487.05
2022-07-30T16:44:04.696Z,97489.48
2022-07-30T16:46:32.760Z,97498.77
2022-07-30T16:49:00.908Z,97503.31
2022-07-30T16:51:28.988Z,97500.22
2022-07-30T16:53:56.970Z,97495.49
2022-07-30T16:56:24.850Z,97492.73
2022-07-30T16:58:53.434Z,97491.08
2022-07-30T17:01:21.435Z,97490.02
2022-07-30T17:03:49.368Z,97492.51
2022-07-30T17:06:17.178Z,97499.40
2022-07-30T17:08:45.253Z,97504.23
2022-07-30T17:11:45.903Z,97500.33
2022-07-30T17:14:04.277Z,97502.96
2022-07-30T17:16:32.688Z,97506.41
2022-07-30T17:19:00.579Z,97504.14
2022-07-30T17:21:38.503Z,97507.92
2022-07-30T17:24:11.404Z,97509.65
2022-07-30T17:26:43.463Z,97514.57
2022-07-30T17:29:14.841Z,97512.55
2022-07-30T17:31:44.439Z,97508.15
2022-07-30T17:34:14.115Z,97502.18
2022-07-30T17:36:51.673Z,97508.09
2022-07-30T17:40:27.114Z,97514.80
2022-07-30T17:42:12.368Z,97522.17
2022-07-30T17:44:41.365Z,97528.83
2022-07-30T17:47:15.166Z,97528.50
2022-07-30T17:49:44.376Z,97525.02
2022-07-30T17:52:12.390Z,97523.44
2022-07-30T17:54:40.150Z,97516.38
2022-07-30T17:57:08.093Z,97517.14
2022-07-30T17:59:36.388Z,97517.39
2022-07-30T18:02:05.204Z,97518.77
2022-07-30T18:04:34.355Z,97524.19
2022-07-30T18:07:03.116Z,97530.23
2022-07-30T18:09:37.790Z,97530.67
2022-07-30T18:12:07.995Z,97517.81
2022-07-30T18:14:35.800Z,97511.92
2022-07-30T18:17:04.458Z,97511.58
2022-07-30T18:19:32.444Z,97507.73
2022-07-30T18:22:02.996Z,97529.14
2022-07-30T18:24:31.040Z,97546.40
2022-07-30T18:26:58.816Z,97550.02
2022-07-30T18:29:26.631Z,97557.41
2022-07-30T18:31:54.560Z,97559.28
2022-07-30T18:34:22.359Z,97567.46
2022-07-30T18:36:51.541Z,97567.95
2022-07-30T18:39:19.367Z,97569.06
2022-07-30T18:41:47.673Z,97576.27
2022-07-30T18:44:15.648Z,97585.80
2022-07-30T18:46:43.642Z,97586.73
2022-07-30T18:49:35.008Z,97590.60
2022-07-30T18:52:01.305Z,97598.90
2022-07-30T18:54:30.698Z,97602.85
2022-07-30T18:56:58.515Z,97609.33
2022-07-30T18:59:26.310Z,97614.65
2022-07-30T19:01:54.704Z,97617.77
2022-07-30T19:04:22.717Z,97627.94
2022-07-30T19:06:50.559Z,97630.64
2022-07-30T19:09:18.861Z,97631.66
2022-07-30T19:11:47.005Z,97643.34
2022-07-30T19:14:15.312Z,97657.80
2022-07-30T19:16:43.771Z,97669.33
2022-07-30T19:19:13.722Z,97669.65
2022-07-30T19:21:41.577Z,97676.33
2022-07-30T19:24:10.134Z,97681.30
2022-07-30T19:26:40.080Z,97684.85
2022-07-30T19:29:08.147Z,97686.83
2022-07-30T19:31:36.663Z,97690.22
2022-07-30T19:34:05.060Z,97688.64
2022-07-30T19:36:33.639Z,97689.67
2022-07-30T19:41:51.078Z,97685.92
2022-07-30T19:44:19.123Z,97680.92
2022-07-30T19:46:51.427Z,97679.20
2022-07-30T19:49:19.912Z,97681.58
2022-07-30T19:52:10.390Z,97688.13
2022-07-30T19:54:37.747Z,97696.73
2022-07-30T19:57:05.784Z,97701.67
2022-07-30T19:59:45.230Z,97694.34
2022-07-30T20:02:15.832Z,97690.23
2022-07-30T20:04:43.935Z,97677.91
2022-07-30T20:07:11.958Z,97671.16
2022-07-30T20:09:42.939Z,97669.34
2022-07-30T20:12:11.611Z,97662.45
2022-07-30T20:14:41.743Z,97653.56
2022-07-30T20:17:11.772Z,97655.29
2022-07-30T20:19:47.750Z,97654.05
2022-07-30T20:22:17.085Z,97649.44
2022-07-30T20:24:45.454Z,97643.00
2022-07-30T20:27:36.204Z,97637.81
2022-07-30T20:30:02.984Z,97633.43
2022-07-30T20:32:30.984Z,97630.77
2022-07-30T20:34:59.388Z,97622.48
2022-07-30T20:37:27.773Z,97613.23
2022-07-30T20:39:55.958Z,97611.31
2022-07-30T20:42:24.627Z,97606.42
2022-07-30T20:44:57.008Z,97596.81
2022-07-30T20:47:34.398Z,97593.25
2022-07-30T20:50:14.675Z,97583.77
2022-07-30T20:52:46.776Z,97579.57
2022-07-30T20:55:16.871Z,97582.09
2022-07-30T20:57:57.215Z,97580.45
2022-07-30T21:00:31.652Z,97586.13
2022-07-30T21:03:03.308Z,97584.40
2022-07-30T21:05:31.637Z,97578.65
2022-07-30T21:08:00.801Z,97578.27
2022-07-30T21:10:29.008Z,97575.62
2022-07-30T21:16:01.583Z,97572.75
2022-07-30T21:18:32.788Z,97571.13
2022-07-30T21:21:01.554Z,97572.40
2022-07-30T21:23:33.536Z,97573.81
2022-07-30T21:26:05.947Z,97567.11
2022-07-30T21:28:38.712Z,97561.39
2022-07-30T21:31:08.705Z,97562.20
2022-07-30T21:33:37.535Z,97557.54
2022-07-30T21:36:10.478Z,97549.46
2022-07-30T21:38:42.734Z,97555.02
2022-07-30T21:41:14.448Z,97551.77
2022-07-30T21:43:43.998Z,97550.17
2022-07-30T21:46:12.307Z,97540.23
2022-07-30T21:48:40.946Z,97537.98
2022-07-30T21:51:10.008Z,97533.80
2022-07-30T21:53:46.091Z,97521.94
2022-07-30T21:56:15.149Z,97508.00
2022-07-30T21:58:44.611Z,97501.88
2022-07-30T22:01:16.350Z,97504.08
2022-07-30T22:04:03.016Z,97505.70
2022-07-30T22:06:41.727Z,97498.70
2022-07-30T22:09:18.995Z,97497.19
2022-07-30T22:14:48.726Z,97492.27
2022-07-30T22:17:23.757Z,97487.77
2022-07-30T22:20:04.954Z,97485.21
2022-07-30T22:22:37.743Z,97485.98
2022-07-30T22:25:09.750Z,97485.61
2022-07-30T22:27:40.031Z,97487.59
2022-07-30T22:30:27.719Z,97486.07
2022-07-30T22:32:55.869Z,97483.00
2022-07-30T22:35:33.603Z,97483.69
2022-07-30T22:38:05.685Z,97481.69
2022-07-30T22:40:34.179Z,97484.02
2022-07-30T22:43:04.281Z,97485.62
2022-07-30T22:45:48.196Z,97487.52
2022-07-30T22:48:17.382Z,97484.91
2022-07-30T22:50:48.564Z,97483.52
2022-07-30T22:54:02.431Z,97479.61
2022-07-30T22:56:14.028Z,97482.64
2022-07-30T22:58:44.098Z,97479.88
2022-07-30T23:01:11.920Z,97476.96
2022-07-30T23:03:42.076Z,97472.67
2022-07-30T23:06:14.751Z,97475.61
2022-07-30T23:08:44.525Z,97477.33
2022-07-30T23:11:12.503Z,97474.90
2022-07-30T23:12:14.798Z,97687.77
2022-07-30T23:12:28.379Z,97493.55
2022-07-30T23:12:31.755Z,97574.89
2022-07-30T23:13:40.633Z,97481.49
2022-07-30T23:16:08.641Z,97485.06
2022-07-30T23:18:36.544Z,97491.04
2022-07-30T23:21:05.089Z,97495.17
2022-07-30T23:23:34.142Z,97496.71
2022-07-30T23:26:05.670Z,97493.58
2022-07-30T23:28:33.464Z,97493.98
2022-07-30T23:31:01.456Z,97493.89
2022-07-30T23:33:30.594Z,97492.70
2022-07-30T23:36:00.422Z,97491.84
2022-07-30T23:38:29.244Z,97492.82
2022-07-30T23:41:01.439Z,97497.61
2022-07-30T23:43:30.060Z,97490.91
2022-07-30T23:45:57.838Z,97493.65
2022-07-30T23:48:25.791Z,97493.29
2022-07-30T23:50:54.079Z,97491.34
2022-07-30T23:53:22.078Z,97486.52
2022-07-30T23:55:50.872Z,97482.35
2022-07-30T23:58:18.814Z,97482.88
